2026/08/14

Sensor Date Temp./Hum.
h4-hermonville 14-08-2026 - 23:58 29.6°C / 34%
h2-hermonville 14-08-2026 - 23:54 28.4°C / 37%
h1-hermonville 14-08-2026 - 23:53 28.3°C / 36.5%
h3-hermonville 14-08-2026 - 23:50 28.9°C / 34.5%
h4-hermonville 14-08-2026 - 23:48 29.7°C / 33.5%
h2-hermonville 14-08-2026 - 23:44 28.1°C / 37%
h1-hermonville 14-08-2026 - 23:43 28.4°C / 35.5%
h3-hermonville 14-08-2026 - 23:40 28.9°C / 35%
h4-hermonville 14-08-2026 - 23:38 29.7°C / 33%
h2-hermonville 14-08-2026 - 23:34 28.4°C / 36.5%
h1-hermonville 14-08-2026 - 23:33 28.5°C / 35.5%
h3-hermonville 14-08-2026 - 23:30 28.9°C / 35.5%
h4-hermonville 14-08-2026 - 23:28 29.8°C / 33.5%
h2-hermonville 14-08-2026 - 23:24 28.4°C / 37%
h1-hermonville 14-08-2026 - 23:23 28.7°C / 35.5%
h3-hermonville 14-08-2026 - 23:20 29.2°C / 34.5%
h4-hermonville 14-08-2026 - 23:18 29.9°C / 33.5%
h2-hermonville 14-08-2026 - 23:14 28.9°C / 35.5%
h1-hermonville 14-08-2026 - 23:13 28.9°C / 35%
h3-hermonville 14-08-2026 - 23:10 29.2°C / 33.5%
h4-hermonville 14-08-2026 - 23:08 29.9°C / 33.5%
h2-hermonville 14-08-2026 - 23:04 29°C / 36.5%
h1-hermonville 14-08-2026 - 23:03 28.9°C / 36%
h3-hermonville 14-08-2026 - 23:00 29.3°C / 34%
h4-hermonville 14-08-2026 - 22:58 30°C / 33.5%
h2-hermonville 14-08-2026 - 22:54 29.1°C / 36.5%
h1-hermonville 14-08-2026 - 22:53 29.1°C / 36%
h3-hermonville 14-08-2026 - 22:50 29.5°C / 34.5%
h4-hermonville 14-08-2026 - 22:48 30.2°C / 34%
h2-hermonville 14-08-2026 - 22:44 29°C / 36.5%
h1-hermonville 14-08-2026 - 22:43 29.3°C / 36%
h3-hermonville 14-08-2026 - 22:40 29.5°C / 34.5%
h4-hermonville 14-08-2026 - 22:38 30.4°C / 33%
h2-hermonville 14-08-2026 - 22:34 29.1°C / 36.5%
h1-hermonville 14-08-2026 - 22:33 29.2°C / 36%
h3-hermonville 14-08-2026 - 22:30 29.4°C / 34.5%
h4-hermonville 14-08-2026 - 22:28 30.5°C / 33.5%
h2-hermonville 14-08-2026 - 22:24 29.3°C / 36.5%
h1-hermonville 14-08-2026 - 22:23 29.5°C / 36%
h3-hermonville 14-08-2026 - 22:20 29.3°C / 35%
h4-hermonville 14-08-2026 - 22:18 30.6°C / 33.5%
h2-hermonville 14-08-2026 - 22:14 29.6°C / 36%
h1-hermonville 14-08-2026 - 22:13 29.5°C / 35%
h3-hermonville 14-08-2026 - 22:10 29.6°C / 34.5%
h4-hermonville 14-08-2026 - 22:08 30.6°C / 33%
h2-hermonville 14-08-2026 - 22:04 29.9°C / 35%
h1-hermonville 14-08-2026 - 22:03 29.8°C / 35%
h3-hermonville 14-08-2026 - 22:00 30.2°C / 33%
h4-hermonville 14-08-2026 - 21:58 30.8°C / 32.5%
h2-hermonville 14-08-2026 - 21:54 29.9°C / 35%
h1-hermonville 14-08-2026 - 21:53 29.9°C / 34%
h3-hermonville 14-08-2026 - 21:50 30.2°C / 33%
h4-hermonville 14-08-2026 - 21:48 31.1°C / 33%
h2-hermonville 14-08-2026 - 21:44 30°C / 35.5%
h1-hermonville 14-08-2026 - 21:43 30.1°C / 34.5%
h3-hermonville 14-08-2026 - 21:40 30°C / 34%
h4-hermonville 14-08-2026 - 21:38 31.3°C / 33.5%
h2-hermonville 14-08-2026 - 21:34 30.7°C / 36.5%
h1-hermonville 14-08-2026 - 21:33 30.5°C / 35.5%
h3-hermonville 14-08-2026 - 21:30 30.2°C / 34%
h4-hermonville 14-08-2026 - 21:28 31.5°C / 34%
h2-hermonville 14-08-2026 - 21:24 31.1°C / 36.5%
h1-hermonville 14-08-2026 - 21:23 30.8°C / 35.5%
h3-hermonville 14-08-2026 - 21:20 30.4°C / 36%
h4-hermonville 14-08-2026 - 21:18 31.7°C / 33.5%
h2-hermonville 14-08-2026 - 21:14 31.4°C / 35%
h1-hermonville 14-08-2026 - 21:13 31.2°C / 34.5%
h3-hermonville 14-08-2026 - 21:10 30.9°C / 35%
h4-hermonville 14-08-2026 - 21:08 32°C / 34%
h1-hermonville 14-08-2026 - 21:03 31.6°C / 36%
h3-hermonville 14-08-2026 - 21:00 31.4°C / 36%
h4-hermonville 14-08-2026 - 20:58 32.2°C / 35%
h2-hermonville 14-08-2026 - 20:54 32.7°C / 35%
h1-hermonville 14-08-2026 - 20:53 31.9°C / 36%
h3-hermonville 14-08-2026 - 20:50 32.3°C / 35%
h4-hermonville 14-08-2026 - 20:48 32.4°C / 33.5%
h2-hermonville 14-08-2026 - 20:44 33°C / 34%
h1-hermonville 14-08-2026 - 20:43 32.4°C / 34%
h3-hermonville 14-08-2026 - 20:40 32.8°C / 33%
h4-hermonville 14-08-2026 - 20:38 32.7°C / 32%
h2-hermonville 14-08-2026 - 20:34 33.1°C / 33.5%
h1-hermonville 14-08-2026 - 20:33 32.8°C / 32.5%
h3-hermonville 14-08-2026 - 20:30 33.5°C / 31.5%
h4-hermonville 14-08-2026 - 20:28 32.9°C / 32%
h2-hermonville 14-08-2026 - 20:24 33.2°C / 31.5%
h1-hermonville 14-08-2026 - 20:23 33.5°C / 31%
h3-hermonville 14-08-2026 - 20:20 34.3°C / 30%
h4-hermonville 14-08-2026 - 20:18 33.3°C / 31.5%
h2-hermonville 14-08-2026 - 20:14 33°C / 30.5%
h1-hermonville 14-08-2026 - 20:13 34°C / 30%
h3-hermonville 14-08-2026 - 20:10 34.8°C / 28.5%
h4-hermonville 14-08-2026 - 20:08 33.7°C / 29.5%
h1-hermonville 14-08-2026 - 20:03 34.6°C / 29%
h3-hermonville 14-08-2026 - 20:00 35.3°C / 27%
h4-hermonville 14-08-2026 - 19:58 34°C / 26.5%
h2-hermonville 14-08-2026 - 19:54 33.4°C / 28%
h1-hermonville 14-08-2026 - 19:53 35°C / 24%
h3-hermonville 14-08-2026 - 19:50 35.4°C / 24%
h4-hermonville 14-08-2026 - 19:48 34.2°C / 25%
h2-hermonville 14-08-2026 - 19:44 33.8°C / 27%
h1-hermonville 14-08-2026 - 19:43 35.2°C / 23.5%
h3-hermonville 14-08-2026 - 19:40 35.5°C / 24%
h4-hermonville 14-08-2026 - 19:38 34.5°C / 25%
h2-hermonville 14-08-2026 - 19:34 34.2°C / 26.5%
h1-hermonville 14-08-2026 - 19:33 35.3°C / 23.5%
h3-hermonville 14-08-2026 - 19:30 35.4°C / 23.5%
h4-hermonville 14-08-2026 - 19:28 34.5°C / 24%
h2-hermonville 14-08-2026 - 19:24 34.4°C / 26.5%
h1-hermonville 14-08-2026 - 19:23 35.3°C / 23%
h3-hermonville 14-08-2026 - 19:20 35.6°C / 23%
h4-hermonville 14-08-2026 - 19:18 34.7°C / 24%
h2-hermonville 14-08-2026 - 19:14 34.7°C / 25.5%
h1-hermonville 14-08-2026 - 19:13 35.6°C / 23%
h3-hermonville 14-08-2026 - 19:10 35.8°C / 23%
h4-hermonville 14-08-2026 - 19:08 34.6°C / 24%
h2-hermonville 14-08-2026 - 19:04 34.7°C / 26%
h1-hermonville 14-08-2026 - 19:03 35.6°C / 23%
h3-hermonville 14-08-2026 - 19:00 35.9°C / 22.5%
h2-hermonville 14-08-2026 - 18:54 35°C / 25%
h1-hermonville 14-08-2026 - 18:53 35.8°C / 23%
h3-hermonville 14-08-2026 - 18:50 35.7°C / 22.5%
h4-hermonville 14-08-2026 - 18:48 35°C / 23.5%
h2-hermonville 14-08-2026 - 18:44 35.1°C / 25%
h1-hermonville 14-08-2026 - 18:43 35.9°C / 22.5%
h3-hermonville 14-08-2026 - 18:40 36.1°C / 22%
h4-hermonville 14-08-2026 - 18:38 34.9°C / 23.5%
h2-hermonville 14-08-2026 - 18:34 35.3°C / 25%
h1-hermonville 14-08-2026 - 18:34 35.8°C / 22%
h3-hermonville 14-08-2026 - 18:30 36°C / 22%
h4-hermonville 14-08-2026 - 18:28 34.8°C / 23.5%
h2-hermonville 14-08-2026 - 18:24 35.2°C / 24.5%
h1-hermonville 14-08-2026 - 18:23 35.8°C / 22.5%
h3-hermonville 14-08-2026 - 18:20 35.9°C / 22.5%
h4-hermonville 14-08-2026 - 18:18 34.9°C / 24%
h2-hermonville 14-08-2026 - 18:14 35°C / 25%
h1-hermonville 14-08-2026 - 18:13 35.9°C / 22.5%
h3-hermonville 14-08-2026 - 18:10 36°C / 23%
h4-hermonville 14-08-2026 - 18:08 35.2°C / 23.5%
h2-hermonville 14-08-2026 - 18:04 35°C / 25.5%
h1-hermonville 14-08-2026 - 18:03 36°C / 22.5%
h3-hermonville 14-08-2026 - 18:00 35.9°C / 22.5%
h4-hermonville 14-08-2026 - 17:58 35.3°C / 23%
h2-hermonville 14-08-2026 - 17:54 35.3°C / 25%
h1-hermonville 14-08-2026 - 17:53 36°C / 22%
h3-hermonville 14-08-2026 - 17:50 36.4°C / 22%
h4-hermonville 14-08-2026 - 17:48 35.2°C / 23.5%
h2-hermonville 14-08-2026 - 17:44 35.4°C / 24%
h1-hermonville 14-08-2026 - 17:43 36°C / 22%
h3-hermonville 14-08-2026 - 17:40 35.7°C / 22.5%
h4-hermonville 14-08-2026 - 17:38 35.4°C / 22.5%
h2-hermonville 14-08-2026 - 17:34 35°C / 24.5%
h1-hermonville 14-08-2026 - 17:33 36.2°C / 22.5%
h3-hermonville 14-08-2026 - 17:30 36.4°C / 22%
h4-hermonville 14-08-2026 - 17:28 35.4°C / 22.5%
h2-hermonville 14-08-2026 - 17:24 34.9°C / 24.5%
h1-hermonville 14-08-2026 - 17:24 36.2°C / 22%
h3-hermonville 14-08-2026 - 17:20 36.3°C / 21.5%
h4-hermonville 14-08-2026 - 17:18 35.2°C / 22%
h2-hermonville 14-08-2026 - 17:14 35.3°C / 24.5%
h1-hermonville 14-08-2026 - 17:13 36.2°C / 21%
h3-hermonville 14-08-2026 - 17:10 36.5°C / 21.5%
h4-hermonville 14-08-2026 - 17:08 35.2°C / 22.5%
h2-hermonville 14-08-2026 - 17:04 35.3°C / 24.5%
h1-hermonville 14-08-2026 - 17:03 36°C / 22%
h3-hermonville 14-08-2026 - 17:00 36.3°C / 21.5%
h4-hermonville 14-08-2026 - 16:58 35°C / 23.5%
h2-hermonville 14-08-2026 - 16:54 35.4°C / 25%
h1-hermonville 14-08-2026 - 16:53 36.1°C / 22%
h3-hermonville 14-08-2026 - 16:50 36.6°C / 22%
h4-hermonville 14-08-2026 - 16:48 35°C / 23.5%
h2-hermonville 14-08-2026 - 16:44 34.3°C / 26%
h1-hermonville 14-08-2026 - 16:43 36°C / 22%
h3-hermonville 14-08-2026 - 16:40 36.5°C / 22%
h4-hermonville 14-08-2026 - 16:38 35.1°C / 23.5%
h2-hermonville 14-08-2026 - 16:34 34.1°C / 26.5%
h1-hermonville 14-08-2026 - 16:33 35.8°C / 23%
h3-hermonville 14-08-2026 - 16:30 36.5°C / 22%
h4-hermonville 14-08-2026 - 16:28 35°C / 23%
h2-hermonville 14-08-2026 - 16:24 33.6°C / 27.5%
h1-hermonville 14-08-2026 - 16:23 35.9°C / 22.5%
h3-hermonville 14-08-2026 - 16:20 36.2°C / 23%
h4-hermonville 14-08-2026 - 16:18 35.1°C / 23.5%
h2-hermonville 14-08-2026 - 16:14 32.2°C / 29.5%
h1-hermonville 14-08-2026 - 16:13 35.9°C / 23%
h3-hermonville 14-08-2026 - 16:10 36.5°C / 23%
h4-hermonville 14-08-2026 - 16:08 34.9°C / 24.5%
h2-hermonville 14-08-2026 - 16:04 31.7°C / 30%
h1-hermonville 14-08-2026 - 16:03 35.6°C / 24%
h3-hermonville 14-08-2026 - 16:00 36.4°C / 23%
h4-hermonville 14-08-2026 - 15:58 35.2°C / 24%
h2-hermonville 14-08-2026 - 15:54 32.1°C / 29.5%
h1-hermonville 14-08-2026 - 15:53 35.7°C / 24%
h3-hermonville 14-08-2026 - 15:50 36.7°C / 22.5%
h4-hermonville 14-08-2026 - 15:48 34.8°C / 25%
h2-hermonville 14-08-2026 - 15:44 31.2°C / 30.5%
h1-hermonville 14-08-2026 - 15:43 35.2°C / 24%
h3-hermonville 14-08-2026 - 15:40 36.6°C / 22.5%
h4-hermonville 14-08-2026 - 15:38 34.7°C / 25%
h2-hermonville 14-08-2026 - 15:34 31.8°C / 30.5%
h1-hermonville 14-08-2026 - 15:33 35.5°C / 24%
h3-hermonville 14-08-2026 - 15:30 36.2°C / 23.5%
h4-hermonville 14-08-2026 - 15:28 34.9°C / 25%
h2-hermonville 14-08-2026 - 15:24 31.2°C / 30.5%
h1-hermonville 14-08-2026 - 15:23 34.9°C / 24.5%
h3-hermonville 14-08-2026 - 15:20 36.2°C / 23%
h4-hermonville 14-08-2026 - 15:18 34.7°C / 24.5%
h2-hermonville 14-08-2026 - 15:14 31.2°C / 30.5%
h1-hermonville 14-08-2026 - 15:13 34.9°C / 24%
h3-hermonville 14-08-2026 - 15:10 36.2°C / 23.5%
h4-hermonville 14-08-2026 - 15:08 34.5°C / 25%
h2-hermonville 14-08-2026 - 15:04 32.2°C / 29.5%
h1-hermonville 14-08-2026 - 15:03 34.6°C / 24.5%
h3-hermonville 14-08-2026 - 15:00 35.9°C / 23.5%
h4-hermonville 14-08-2026 - 14:58 34.6°C / 25%
h2-hermonville 14-08-2026 - 14:54 30.4°C / 31.5%
h1-hermonville 14-08-2026 - 14:53 34.8°C / 24.5%
h3-hermonville 14-08-2026 - 14:50 35.9°C / 23.5%
h4-hermonville 14-08-2026 - 14:48 34.8°C / 24.5%
h2-hermonville 14-08-2026 - 14:44 30.4°C / 31%
h1-hermonville 14-08-2026 - 14:43 34.6°C / 24.5%
h3-hermonville 14-08-2026 - 14:40 35.3°C / 24%
h4-hermonville 14-08-2026 - 14:38 34.6°C / 24.5%
h2-hermonville 14-08-2026 - 14:34 30.3°C / 31%
h1-hermonville 14-08-2026 - 14:33 34.2°C / 24.5%
h3-hermonville 14-08-2026 - 14:30 35°C / 24%
h4-hermonville 14-08-2026 - 14:28 34.7°C / 24%
h2-hermonville 14-08-2026 - 14:24 31°C / 30%
h1-hermonville 14-08-2026 - 14:23 33.5°C / 25.5%
h3-hermonville 14-08-2026 - 14:20 34.1°C / 25%
h4-hermonville 14-08-2026 - 14:18 34.8°C / 23.5%
h2-hermonville 14-08-2026 - 14:14 30.5°C / 31%
h1-hermonville 14-08-2026 - 14:14 34.1°C / 25%
h3-hermonville 14-08-2026 - 14:10 34.6°C / 24.5%
h4-hermonville 14-08-2026 - 14:08 34.8°C / 24%
h2-hermonville 14-08-2026 - 14:04 30.5°C / 30.5%
h1-hermonville 14-08-2026 - 14:03 33.9°C / 25%
h3-hermonville 14-08-2026 - 14:00 34.5°C / 24.5%
h4-hermonville 14-08-2026 - 13:58 34.6°C / 23.5%
h2-hermonville 14-08-2026 - 13:54 29.7°C / 31.5%
h1-hermonville 14-08-2026 - 13:53 33.8°C / 25%
h3-hermonville 14-08-2026 - 13:50 34.4°C / 24%
h4-hermonville 14-08-2026 - 13:48 34.7°C / 23%
h2-hermonville 14-08-2026 - 13:44 29.6°C / 31.5%
h1-hermonville 14-08-2026 - 13:43 33.7°C / 24.5%
h3-hermonville 14-08-2026 - 13:40 34.3°C / 24%
h4-hermonville 14-08-2026 - 13:38 34.4°C / 24%
h2-hermonville 14-08-2026 - 13:34 29.5°C / 31%
h1-hermonville 14-08-2026 - 13:33 33.2°C / 24.5%
h3-hermonville 14-08-2026 - 13:30 33.8°C / 24.5%
h4-hermonville 14-08-2026 - 13:28 34.5°C / 23.5%
h2-hermonville 14-08-2026 - 13:24 29.2°C / 32%
h1-hermonville 14-08-2026 - 13:23 33.3°C / 23.5%
h3-hermonville 14-08-2026 - 13:20 33.5°C / 24.5%
h4-hermonville 14-08-2026 - 13:18 34.5°C / 23.5%
h2-hermonville 14-08-2026 - 13:14 29.4°C / 32.5%
h1-hermonville 14-08-2026 - 13:13 32.7°C / 26%
h3-hermonville 14-08-2026 - 13:10 33.4°C / 25.5%
h2-hermonville 14-08-2026 - 13:04 29°C / 33%
h1-hermonville 14-08-2026 - 13:03 32.8°C / 25%
h3-hermonville 14-08-2026 - 13:00 32.6°C / 26.5%
h4-hermonville 14-08-2026 - 12:58 34.4°C / 24.5%
h2-hermonville 14-08-2026 - 12:54 29.2°C / 33.5%
h1-hermonville 14-08-2026 - 12:53 32.3°C / 27.5%
h3-hermonville 14-08-2026 - 12:50 32.6°C / 27.5%
h4-hermonville 14-08-2026 - 12:48 34.3°C / 25%
h2-hermonville 14-08-2026 - 12:44 29°C / 34.5%
h3-hermonville 14-08-2026 - 12:40 32.7°C / 27.5%
h4-hermonville 14-08-2026 - 12:38 34.4°C / 25%
h2-hermonville 14-08-2026 - 12:34 28.7°C / 35.5%
h1-hermonville 14-08-2026 - 12:33 31.6°C / 29%
h3-hermonville 14-08-2026 - 12:30 32.2°C / 29%
h4-hermonville 14-08-2026 - 12:28 34.5°C / 25.5%
h2-hermonville 14-08-2026 - 12:24 28.7°C / 36%
h1-hermonville 14-08-2026 - 12:23 31.1°C / 30%
h3-hermonville 14-08-2026 - 12:20 32°C / 30%
h4-hermonville 14-08-2026 - 12:18 34.7°C / 26.5%
h2-hermonville 14-08-2026 - 12:14 28.3°C / 37.5%
h1-hermonville 14-08-2026 - 12:13 31°C / 32%
h3-hermonville 14-08-2026 - 12:10 31.2°C / 31%
h4-hermonville 14-08-2026 - 12:08 35.1°C / 26%
h2-hermonville 14-08-2026 - 12:04 28.2°C / 37.5%
h3-hermonville 14-08-2026 - 12:00 30.9°C / 31.5%
h4-hermonville 14-08-2026 - 11:58 37.2°C / 24%
h2-hermonville 14-08-2026 - 11:54 28°C / 38%
h1-hermonville 14-08-2026 - 11:53 30.6°C / 32.5%
h3-hermonville 14-08-2026 - 11:50 30.6°C / 33%
h4-hermonville 14-08-2026 - 11:48 37.5°C / 23.5%
h2-hermonville 14-08-2026 - 11:44 28.1°C / 38%
h1-hermonville 14-08-2026 - 11:43 30°C / 34%
h3-hermonville 14-08-2026 - 11:40 30.4°C / 33%
h4-hermonville 14-08-2026 - 11:38 37.7°C / 24%
h2-hermonville 14-08-2026 - 11:34 27.9°C / 38.5%
h1-hermonville 14-08-2026 - 11:33 29.6°C / 34%
h3-hermonville 14-08-2026 - 11:30 29.6°C / 34%
h4-hermonville 14-08-2026 - 11:28 37°C / 24.5%
h2-hermonville 14-08-2026 - 11:24 28°C / 38%
h1-hermonville 14-08-2026 - 11:23 29.1°C / 35%
h3-hermonville 14-08-2026 - 11:20 29.3°C / 35%
h4-hermonville 14-08-2026 - 11:18 37.3°C / 24%
h1-hermonville 14-08-2026 - 11:13 28.8°C / 35.5%
h3-hermonville 14-08-2026 - 11:10 29°C / 35.5%
h4-hermonville 14-08-2026 - 11:08 37.6°C / 23.5%
h2-hermonville 14-08-2026 - 11:04 27.2°C / 40%
h1-hermonville 14-08-2026 - 11:03 28.7°C / 36%
h3-hermonville 14-08-2026 - 11:00 28.6°C / 36%
h4-hermonville 14-08-2026 - 10:58 37.2°C / 24.5%
h2-hermonville 14-08-2026 - 10:54 27.5°C / 39%
h1-hermonville 14-08-2026 - 10:53 27.9°C / 37%
h3-hermonville 14-08-2026 - 10:50 28.2°C / 37%
h4-hermonville 14-08-2026 - 10:48 36.4°C / 24.5%
h2-hermonville 14-08-2026 - 10:44 27.1°C / 40%
h1-hermonville 14-08-2026 - 10:43 27.8°C / 38%
h3-hermonville 14-08-2026 - 10:40 28°C / 37.5%
h4-hermonville 14-08-2026 - 10:38 36.3°C / 25.5%
h2-hermonville 14-08-2026 - 10:34 26.9°C / 40.5%
h1-hermonville 14-08-2026 - 10:33 27.4°C / 39%
h3-hermonville 14-08-2026 - 10:30 27.6°C / 38.5%
h4-hermonville 14-08-2026 - 10:28 35.4°C / 26.5%
h2-hermonville 14-08-2026 - 10:24 26.7°C / 40%
h1-hermonville 14-08-2026 - 10:23 27°C / 39.5%
h3-hermonville 14-08-2026 - 10:20 27.2°C / 39%
h4-hermonville 14-08-2026 - 10:18 35.5°C / 26%
h2-hermonville 14-08-2026 - 10:14 26.6°C / 40.5%
h1-hermonville 14-08-2026 - 10:13 26.5°C / 40%
h3-hermonville 14-08-2026 - 10:10 27°C / 39.5%
h4-hermonville 14-08-2026 - 10:08 35.3°C / 26.5%
h2-hermonville 14-08-2026 - 10:04 26.3°C / 41%
h3-hermonville 14-08-2026 - 10:00 26.8°C / 40%
h4-hermonville 14-08-2026 - 09:58 34.7°C / 27%
h2-hermonville 14-08-2026 - 09:54 25.9°C / 41.5%
h1-hermonville 14-08-2026 - 09:53 25.7°C / 41.5%
h3-hermonville 14-08-2026 - 09:50 26.5°C / 40%
h4-hermonville 14-08-2026 - 09:48 35.5°C / 26%
h1-hermonville 14-08-2026 - 09:43 25.7°C / 42.5%
h3-hermonville 14-08-2026 - 09:40 26.3°C / 41%
h4-hermonville 14-08-2026 - 09:38 34.7°C / 27%
h2-hermonville 14-08-2026 - 09:34 25.2°C / 43%
h1-hermonville 14-08-2026 - 09:33 25°C / 43%
h3-hermonville 14-08-2026 - 09:30 26°C / 41%
h4-hermonville 14-08-2026 - 09:28 34.4°C / 27%
h2-hermonville 14-08-2026 - 09:24 24.9°C / 43%
h1-hermonville 14-08-2026 - 09:23 24.5°C / 44%
h3-hermonville 14-08-2026 - 09:20 25.6°C / 41.5%
h4-hermonville 14-08-2026 - 09:18 33.7°C / 28%
h2-hermonville 14-08-2026 - 09:14 24.7°C / 43.5%
h1-hermonville 14-08-2026 - 09:13 24.2°C / 44%
h3-hermonville 14-08-2026 - 09:10 25.3°C / 42%
h4-hermonville 14-08-2026 - 09:08 32.6°C / 29.5%
h2-hermonville 14-08-2026 - 09:04 24.4°C / 43.5%
h1-hermonville 14-08-2026 - 09:03 24°C / 44%
h3-hermonville 14-08-2026 - 09:00 25°C / 42%
h4-hermonville 14-08-2026 - 08:58 31.6°C / 30.5%
h2-hermonville 14-08-2026 - 08:54 24.1°C / 43.5%
h1-hermonville 14-08-2026 - 08:53 23.7°C / 44%
h3-hermonville 14-08-2026 - 08:50 24.8°C / 43%
h4-hermonville 14-08-2026 - 08:48 30.5°C / 32.5%
h2-hermonville 14-08-2026 - 08:44 23.9°C / 45%
h1-hermonville 14-08-2026 - 08:43 23.2°C / 47%
h3-hermonville 14-08-2026 - 08:40 24.4°C / 44%
h4-hermonville 14-08-2026 - 08:38 29.8°C / 33%
h2-hermonville 14-08-2026 - 08:34 23.4°C / 45.5%
h1-hermonville 14-08-2026 - 08:33 23°C / 46.5%
h3-hermonville 14-08-2026 - 08:30 24°C / 44%
h4-hermonville 14-08-2026 - 08:28 28.4°C / 36%
h2-hermonville 14-08-2026 - 08:24 23.2°C / 46.5%
h1-hermonville 14-08-2026 - 08:23 22.9°C / 47%
h3-hermonville 14-08-2026 - 08:20 23.4°C / 45.5%
h4-hermonville 14-08-2026 - 08:18 25.9°C / 40%
h1-hermonville 14-08-2026 - 08:13 22.6°C / 47.5%
h3-hermonville 14-08-2026 - 08:10 22.9°C / 47.5%
h4-hermonville 14-08-2026 - 08:08 24.8°C / 43%
h2-hermonville 14-08-2026 - 08:04 22.5°C / 49%
h1-hermonville 14-08-2026 - 08:03 22.7°C / 47.5%
h3-hermonville 14-08-2026 - 08:00 22.5°C / 48%
h4-hermonville 14-08-2026 - 07:58 24.2°C / 42.5%
h2-hermonville 14-08-2026 - 07:54 22.1°C / 49.5%
h1-hermonville 14-08-2026 - 07:53 22.6°C / 47.5%
h3-hermonville 14-08-2026 - 07:50 22.1°C / 49.5%
h4-hermonville 14-08-2026 - 07:48 24°C / 44.5%
h2-hermonville 14-08-2026 - 07:44 21.7°C / 51%
h1-hermonville 14-08-2026 - 07:43 22.3°C / 49%
h3-hermonville 14-08-2026 - 07:40 21.8°C / 50%
h4-hermonville 14-08-2026 - 07:38 23.8°C / 44%
h2-hermonville 14-08-2026 - 07:34 21.5°C / 51%
h1-hermonville 14-08-2026 - 07:33 22.6°C / 47.5%
h3-hermonville 14-08-2026 - 07:30 21.6°C / 47.5%
h4-hermonville 14-08-2026 - 07:28 23.8°C / 44.5%
h2-hermonville 14-08-2026 - 07:24 21.4°C / 50.5%
h1-hermonville 14-08-2026 - 07:23 22.8°C / 46.5%
h3-hermonville 14-08-2026 - 07:20 21.6°C / 49%
h4-hermonville 14-08-2026 - 07:18 23.6°C / 44.5%
h2-hermonville 14-08-2026 - 07:14 21.2°C / 51%
h1-hermonville 14-08-2026 - 07:13 22.7°C / 46%
h3-hermonville 14-08-2026 - 07:10 21.4°C / 48.5%
h4-hermonville 14-08-2026 - 07:08 23.9°C / 43.5%
h2-hermonville 14-08-2026 - 07:04 21.1°C / 50.5%
h1-hermonville 14-08-2026 - 07:03 22.4°C / 46.5%
h3-hermonville 14-08-2026 - 07:00 21.5°C / 47.5%
h4-hermonville 14-08-2026 - 06:58 23.4°C / 44.5%
h2-hermonville 14-08-2026 - 06:54 21.1°C / 50.5%
h1-hermonville 14-08-2026 - 06:53 22.4°C / 47%
h3-hermonville 14-08-2026 - 06:50 21.5°C / 48%
h4-hermonville 14-08-2026 - 06:48 23.6°C / 43.5%
h2-hermonville 14-08-2026 - 06:44 21.4°C / 49.5%
h1-hermonville 14-08-2026 - 06:43 22.1°C / 45.5%
h3-hermonville 14-08-2026 - 06:40 21.9°C / 45.5%
h4-hermonville 14-08-2026 - 06:38 23.2°C / 44.5%
h2-hermonville 14-08-2026 - 06:34 21.7°C / 50%
h1-hermonville 14-08-2026 - 06:33 22.2°C / 46.5%
h3-hermonville 14-08-2026 - 06:30 21.9°C / 47%
h4-hermonville 14-08-2026 - 06:28 23.6°C / 43%
h2-hermonville 14-08-2026 - 06:24 21.7°C / 48.5%
h1-hermonville 14-08-2026 - 06:23 22.8°C / 45.5%
h3-hermonville 14-08-2026 - 06:20 22.4°C / 44.5%
h4-hermonville 14-08-2026 - 06:18 23.6°C / 43%
h1-hermonville 14-08-2026 - 06:13 22.8°C / 45%
h3-hermonville 14-08-2026 - 06:10 22.9°C / 43%
h4-hermonville 14-08-2026 - 06:08 23.6°C / 43.5%
h2-hermonville 14-08-2026 - 06:04 21.8°C / 48%
h1-hermonville 14-08-2026 - 06:03 22.7°C / 45.5%
h3-hermonville 14-08-2026 - 06:00 22.5°C / 45%
h4-hermonville 14-08-2026 - 05:58 23.8°C / 43.5%
h2-hermonville 14-08-2026 - 05:54 21.9°C / 48%
h1-hermonville 14-08-2026 - 05:53 22.9°C / 45.5%
h3-hermonville 14-08-2026 - 05:50 22.6°C / 45.5%
h4-hermonville 14-08-2026 - 05:48 24.3°C / 43%
h2-hermonville 14-08-2026 - 05:44 22.3°C / 48.5%
h1-hermonville 14-08-2026 - 05:43 22.8°C / 46.5%
h3-hermonville 14-08-2026 - 05:40 23.1°C / 45.5%
h4-hermonville 14-08-2026 - 05:38 24.5°C / 41.5%
h2-hermonville 14-08-2026 - 05:34 22.5°C / 45.5%
h1-hermonville 14-08-2026 - 05:33 23.7°C / 42%
h3-hermonville 14-08-2026 - 05:30 23.5°C / 42%
h4-hermonville 14-08-2026 - 05:28 25.1°C / 39.5%
h2-hermonville 14-08-2026 - 05:24 22.6°C / 44.5%
h1-hermonville 14-08-2026 - 05:23 24°C / 42%
h3-hermonville 14-08-2026 - 05:20 23.3°C / 41.5%
h4-hermonville 14-08-2026 - 05:18 25.2°C / 39%
h2-hermonville 14-08-2026 - 05:14 22.6°C / 46.5%
h1-hermonville 14-08-2026 - 05:13 24°C / 42%
h3-hermonville 14-08-2026 - 05:10 23.4°C / 42%
h4-hermonville 14-08-2026 - 05:08 25.2°C / 38.5%
h2-hermonville 14-08-2026 - 05:04 23°C / 44.5%
h1-hermonville 14-08-2026 - 05:03 24.2°C / 41%
h3-hermonville 14-08-2026 - 05:00 24.5°C / 40%
h4-hermonville 14-08-2026 - 04:58 25°C / 39%
h2-hermonville 14-08-2026 - 04:54 23°C / 43.5%
h1-hermonville 14-08-2026 - 04:53 24.2°C / 41%
h3-hermonville 14-08-2026 - 04:50 24.2°C / 41%
h4-hermonville 14-08-2026 - 04:48 25.3°C / 39%
h2-hermonville 14-08-2026 - 04:44 23.3°C / 43.5%
h1-hermonville 14-08-2026 - 04:43 24.4°C / 40.5%
h3-hermonville 14-08-2026 - 04:40 24.3°C / 41%
h4-hermonville 14-08-2026 - 04:38 25.7°C / 38%
h2-hermonville 14-08-2026 - 04:34 23.3°C / 43%
h1-hermonville 14-08-2026 - 04:33 24.5°C / 41%
h3-hermonville 14-08-2026 - 04:30 24.1°C / 41.5%
h4-hermonville 14-08-2026 - 04:28 26.2°C / 37.5%
h2-hermonville 14-08-2026 - 04:24 23.4°C / 44.5%
h1-hermonville 14-08-2026 - 04:23 24.5°C / 41%
h3-hermonville 14-08-2026 - 04:20 23.8°C / 40%
h4-hermonville 14-08-2026 - 04:18 26.3°C / 37.5%
h2-hermonville 14-08-2026 - 04:14 23.5°C / 45%
h1-hermonville 14-08-2026 - 04:13 24.7°C / 41%
h3-hermonville 14-08-2026 - 04:10 24.3°C / 40%
h4-hermonville 14-08-2026 - 04:08 26.3°C / 37.5%
h2-hermonville 14-08-2026 - 04:04 23.7°C / 45%
h1-hermonville 14-08-2026 - 04:03 24.7°C / 41.5%
h3-hermonville 14-08-2026 - 04:00 24.6°C / 40%
h4-hermonville 14-08-2026 - 03:58 26.1°C / 38%
h2-hermonville 14-08-2026 - 03:54 24.1°C / 42.5%
h1-hermonville 14-08-2026 - 03:53 24.8°C / 40%
h3-hermonville 14-08-2026 - 03:50 24.9°C / 40%
h4-hermonville 14-08-2026 - 03:48 26.4°C / 37%
h2-hermonville 14-08-2026 - 03:44 23.9°C / 43%
h1-hermonville 14-08-2026 - 03:43 24.7°C / 40%
h3-hermonville 14-08-2026 - 03:40 25.1°C / 39.5%
h4-hermonville 14-08-2026 - 03:38 26.7°C / 36%
h2-hermonville 14-08-2026 - 03:34 24.2°C / 43.5%
h1-hermonville 14-08-2026 - 03:33 24.9°C / 41%
h3-hermonville 14-08-2026 - 03:30 25°C / 36.5%
h4-hermonville 14-08-2026 - 03:28 26.7°C / 36%
h2-hermonville 14-08-2026 - 03:24 24.4°C / 42.5%
h1-hermonville 14-08-2026 - 03:23 25.3°C / 39.5%
h3-hermonville 14-08-2026 - 03:20 24.9°C / 37%
h4-hermonville 14-08-2026 - 03:18 26.7°C / 36.5%
h2-hermonville 14-08-2026 - 03:14 24.7°C / 42%
h1-hermonville 14-08-2026 - 03:13 25.4°C / 39%
h3-hermonville 14-08-2026 - 03:10 25.1°C / 36.5%
h4-hermonville 14-08-2026 - 03:08 27°C / 36%
h2-hermonville 14-08-2026 - 03:04 25°C / 41%
h1-hermonville 14-08-2026 - 03:03 25.8°C / 38.5%
h3-hermonville 14-08-2026 - 03:00 25.5°C / 38%
h4-hermonville 14-08-2026 - 02:58 26.9°C / 36.5%
h2-hermonville 14-08-2026 - 02:54 25°C / 40%
h1-hermonville 14-08-2026 - 02:53 25.7°C / 38%
h3-hermonville 14-08-2026 - 02:50 26.1°C / 37%
h4-hermonville 14-08-2026 - 02:48 27.1°C / 36.5%
h2-hermonville 14-08-2026 - 02:44 25.3°C / 40%
h1-hermonville 14-08-2026 - 02:43 25.8°C / 35%
h3-hermonville 14-08-2026 - 02:40 26.1°C / 36%
h4-hermonville 14-08-2026 - 02:38 26.9°C / 36%
h2-hermonville 14-08-2026 - 02:34 25.3°C / 39.5%
h1-hermonville 14-08-2026 - 02:33 26°C / 38%
h3-hermonville 14-08-2026 - 02:30 26.2°C / 37%
h4-hermonville 14-08-2026 - 02:28 26.9°C / 36.5%
h2-hermonville 14-08-2026 - 02:24 25.8°C / 40%
h1-hermonville 14-08-2026 - 02:23 25.9°C / 38%
h3-hermonville 14-08-2026 - 02:20 26.2°C / 37.5%
h4-hermonville 14-08-2026 - 02:18 27.1°C / 35.5%
h2-hermonville 14-08-2026 - 02:14 26°C / 38%
h1-hermonville 14-08-2026 - 02:13 26.5°C / 34%
h3-hermonville 14-08-2026 - 02:10 26.5°C / 35%
h4-hermonville 14-08-2026 - 02:08 27.8°C / 34%
h2-hermonville 14-08-2026 - 02:04 26.3°C / 37.5%
h1-hermonville 14-08-2026 - 02:03 26.8°C / 35%
h3-hermonville 14-08-2026 - 02:00 26.8°C / 33%
h4-hermonville 14-08-2026 - 01:58 28°C / 33%
h2-hermonville 14-08-2026 - 01:54 26.5°C / 37%
h1-hermonville 14-08-2026 - 01:53 26.9°C / 34.5%
h3-hermonville 14-08-2026 - 01:50 26.7°C / 35%
h4-hermonville 14-08-2026 - 01:48 27.9°C / 33.5%
h2-hermonville 14-08-2026 - 01:44 27°C / 36%
h1-hermonville 14-08-2026 - 01:43 27.2°C / 35%
h3-hermonville 14-08-2026 - 01:40 27.7°C / 33%
h4-hermonville 14-08-2026 - 01:38 28°C / 32.5%
h2-hermonville 14-08-2026 - 01:34 27.7°C / 35%
h1-hermonville 14-08-2026 - 01:33 27.5°C / 31.5%
h3-hermonville 14-08-2026 - 01:30 28.2°C / 32.5%
h4-hermonville 14-08-2026 - 01:28 28.2°C / 32%
h2-hermonville 14-08-2026 - 01:24 28.2°C / 34.5%
h1-hermonville 14-08-2026 - 01:23 27.7°C / 31%
h3-hermonville 14-08-2026 - 01:20 28.3°C / 30.5%
h4-hermonville 14-08-2026 - 01:18 28.3°C / 31.5%
h2-hermonville 14-08-2026 - 01:14 28.1°C / 35%
h1-hermonville 14-08-2026 - 01:13 27.9°C / 32%
h3-hermonville 14-08-2026 - 01:10 28.5°C / 31.5%
h4-hermonville 14-08-2026 - 01:08 28.3°C / 32%
h2-hermonville 14-08-2026 - 01:04 28.2°C / 34%
h1-hermonville 14-08-2026 - 01:03 27.9°C / 30.5%
h3-hermonville 14-08-2026 - 01:00 28.5°C / 31%
h4-hermonville 14-08-2026 - 00:58 28.4°C / 32%
h1-hermonville 14-08-2026 - 00:53 28.1°C / 30.5%
h3-hermonville 14-08-2026 - 00:50 28.6°C / 30%
h4-hermonville 14-08-2026 - 00:48 28.5°C / 30.5%
h2-hermonville 14-08-2026 - 00:44 28.8°C / 33%
h1-hermonville 14-08-2026 - 00:43 28.2°C / 31.5%
h3-hermonville 14-08-2026 - 00:40 28.9°C / 29%
h4-hermonville 14-08-2026 - 00:38 28.6°C / 30%
h2-hermonville 14-08-2026 - 00:34 28.8°C / 33%
h1-hermonville 14-08-2026 - 00:33 28.2°C / 30.5%
h3-hermonville 14-08-2026 - 00:30 28.6°C / 30%
h4-hermonville 14-08-2026 - 00:28 28.5°C / 30.5%
h2-hermonville 14-08-2026 - 00:24 28.8°C / 32%
h1-hermonville 14-08-2026 - 00:23 28.1°C / 31.5%
h3-hermonville 14-08-2026 - 00:20 28.7°C / 31%
h4-hermonville 14-08-2026 - 00:18 28.7°C / 31%
h2-hermonville 14-08-2026 - 00:14 28.8°C / 31.5%
h1-hermonville 14-08-2026 - 00:13 28.3°C / 30.5%
h4-hermonville 14-08-2026 - 00:08 28.9°C / 31%
h2-hermonville 14-08-2026 - 00:04 28.7°C / 31.5%
h1-hermonville 14-08-2026 - 00:03 28.6°C / 29.5%
h3-hermonville 14-08-2026 - 00:00 28.6°C / 31%